KHII/HII METAR and TAF weather

Enter ICAO airport designator
Station Type Date Time Source
KHII METAR 2020/03/31 06:15 UTC NOAA

KHII 310615Z AUTO 01003KT 10SM CLR 18/02 A3012 RMK AO2


Station Type Date Time Source
KHII Decoded METAR 2020/03/31 06:15 UTC NOAA

Station name not available
Mar 31, 2020 - 02:15 AM EDT / 2020.03.31 0615 UTC
Wind: from the N (010 degrees) at 3 MPH (3 KT):0
Visibility: 10 mile(s):0
Sky conditions: clear
Temperature: 64 F (18 C)
Dew Point: 35 F (2 C)
Relative Humidity: 34%
Pressure (altimeter): 30.12 in. Hg (1019 hPa)
ob: KHII 310615Z AUTO 01003KT 10SM CLR 18/02 A3012 RMK AO2
cycle: 6

Station Type Date Time Source
KHII TAF UTC NOAA

Error!

Example: see airport list